sensor_id;sensor_type;location;lat;lon;timestamp;P1;durP1;ratioP1;P2;durP2;ratioP2
422;SDS011;198;48.752;9.180;2023-02-15T00:01:31;31.23;;;10.90;;
422;SDS011;198;48.752;9.180;2023-02-15T00:03:57;29.10;;;11.03;;
422;SDS011;198;48.752;9.180;2023-02-15T00:06:23;26.00;;;10.57;;
422;SDS011;198;48.752;9.180;2023-02-15T00:08:48;24.73;;;9.23;;
422;SDS011;198;48.752;9.180;2023-02-15T00:11:15;24.47;;;9.27;;
422;SDS011;198;48.752;9.180;2023-02-15T00:14:03;32.87;;;12.70;;
422;SDS011;198;48.752;9.180;2023-02-15T00:16:31;25.47;;;11.57;;
422;SDS011;198;48.752;9.180;2023-02-15T00:18:57;34.93;;;11.20;;
422;SDS011;198;48.752;9.180;2023-02-15T00:21:26;29.00;;;11.70;;
422;SDS011;198;48.752;9.180;2023-02-15T00:23:52;20.80;;;9.30;;
422;SDS011;198;48.752;9.180;2023-02-15T00:26:18;25.00;;;10.20;;
422;SDS011;198;48.752;9.180;2023-02-15T00:28:43;27.93;;;9.77;;
422;SDS011;198;48.752;9.180;2023-02-15T00:31:10;23.43;;;9.40;;
422;SDS011;198;48.752;9.180;2023-02-15T00:33:37;18.13;;;9.83;;
422;SDS011;198;48.752;9.180;2023-02-15T00:36:04;29.73;;;10.27;;
422;SDS011;198;48.752;9.180;2023-02-15T00:38:31;30.07;;;9.90;;
422;SDS011;198;48.752;9.180;2023-02-15T00:40:58;30.07;;;11.17;;
422;SDS011;198;48.752;9.180;2023-02-15T00:43:25;36.73;;;11.43;;
422;SDS011;198;48.752;9.180;2023-02-15T00:45:51;30.67;;;13.67;;
422;SDS011;198;48.752;9.180;2023-02-15T00:48:17;31.97;;;12.17;;
422;SDS011;198;48.752;9.180;2023-02-15T00:50:50;27.93;;;10.40;;
422;SDS011;198;48.752;9.180;2023-02-15T00:53:17;31.97;;;9.33;;
422;SDS011;198;48.752;9.180;2023-02-15T00:55:43;28.73;;;12.53;;
422;SDS011;198;48.752;9.180;2023-02-15T00:58:09;25.70;;;9.20;;
422;SDS011;198;48.752;9.180;2023-02-15T01:00:35;30.53;;;11.70;;
422;SDS011;198;48.752;9.180;2023-02-15T01:03:01;20.80;;;9.40;;
422;SDS011;198;48.752;9.180;2023-02-15T01:05:27;26.40;;;11.10;;
422;SDS011;198;48.752;9.180;2023-02-15T01:07:54;23.37;;;10.27;;
422;SDS011;198;48.752;9.180;2023-02-15T01:10:20;25.80;;;11.53;;
422;SDS011;198;48.752;9.180;2023-02-15T01:12:46;31.63;;;11.60;;
422;SDS011;198;48.752;9.180;2023-02-15T01:15:11;31.10;;;12.53;;
422;SDS011;198;48.752;9.180;2023-02-15T01:17:37;24.10;;;10.30;;
422;SDS011;198;48.752;9.180;2023-02-15T01:20:02;26.40;;;11.30;;
422;SDS011;198;48.752;9.180;2023-02-15T01:22:28;54.57;;;14.03;;
422;SDS011;198;48.752;9.180;2023-02-15T01:24:54;33.17;;;12.47;;
422;SDS011;198;48.752;9.180;2023-02-15T01:27:19;33.57;;;11.63;;
422;SDS011;198;48.752;9.180;2023-02-15T01:29:45;28.90;;;12.80;;
422;SDS011;198;48.752;9.180;2023-02-15T01:32:12;23.87;;;11.30;;
422;SDS011;198;48.752;9.180;2023-02-15T01:34:37;24.33;;;9.93;;
422;SDS011;198;48.752;9.180;2023-02-15T01:37:03;34.03;;;10.63;;
422;SDS011;198;48.752;9.180;2023-02-15T01:39:28;25.03;;;10.40;;
422;SDS011;198;48.752;9.180;2023-02-15T01:41:54;29.70;;;12.80;;
422;SDS011;198;48.752;9.180;2023-02-15T01:47:16;23.17;;;10.73;;
422;SDS011;198;48.752;9.180;2023-02-15T01:52:55;24.07;;;10.57;;
422;SDS011;198;48.752;9.180;2023-02-15T01:55:27;22.33;;;9.07;;
422;SDS011;198;48.752;9.180;2023-02-15T01:57:57;28.20;;;10.27;;
422;SDS011;198;48.752;9.180;2023-02-15T02:00:23;27.03;;;11.60;;
422;SDS011;198;48.752;9.180;2023-02-15T02:02:50;25.60;;;11.17;;
422;SDS011;198;48.752;9.180;2023-02-15T02:05:18;27.53;;;11.73;;
422;SDS011;198;48.752;9.180;2023-02-15T02:07:44;26.30;;;9.50;;
422;SDS011;198;48.752;9.180;2023-02-15T02:10:13;27.37;;;10.57;;
422;SDS011;198;48.752;9.180;2023-02-15T02:12:42;19.17;;;8.13;;
422;SDS011;198;48.752;9.180;2023-02-15T02:15:10;22.17;;;10.97;;
422;SDS011;198;48.752;9.180;2023-02-15T02:20:30;24.33;;;9.67;;
422;SDS011;198;48.752;9.180;2023-02-15T02:23:27;31.30;;;11.77;;
422;SDS011;198;48.752;9.180;2023-02-15T02:32:16;29.20;;;11.67;;
422;SDS011;198;48.752;9.180;2023-02-15T02:35:03;38.00;;;11.97;;
422;SDS011;198;48.752;9.180;2023-02-15T02:37:35;33.50;;;11.13;;
422;SDS011;198;48.752;9.180;2023-02-15T02:40:13;38.60;;;13.67;;
422;SDS011;198;48.752;9.180;2023-02-15T02:42:49;27.20;;;11.07;;
422;SDS011;198;48.752;9.180;2023-02-15T02:45:35;36.13;;;12.50;;
422;SDS011;198;48.752;9.180;2023-02-15T02:48:08;28.13;;;10.67;;
422;SDS011;198;48.752;9.180;2023-02-15T02:50:39;24.37;;;11.10;;
422;SDS011;198;48.752;9.180;2023-02-15T02:53:05;29.50;;;12.00;;
422;SDS011;198;48.752;9.180;2023-02-15T03:01:09;31.80;;;14.23;;
422;SDS011;198;48.752;9.180;2023-02-15T03:03:44;33.20;;;12.03;;
422;SDS011;198;48.752;9.180;2023-02-15T03:06:24;27.30;;;10.93;;
422;SDS011;198;48.752;9.180;2023-02-15T03:08:56;30.63;;;11.90;;
422;SDS011;198;48.752;9.180;2023-02-15T03:11:26;27.17;;;11.17;;
422;SDS011;198;48.752;9.180;2023-02-15T03:13:52;26.37;;;10.83;;
422;SDS011;198;48.752;9.180;2023-02-15T03:16:18;30.67;;;12.90;;
422;SDS011;198;48.752;9.180;2023-02-15T03:18:56;34.87;;;12.53;;
422;SDS011;198;48.752;9.180;2023-02-15T03:21:44;27.40;;;10.77;;
422;SDS011;198;48.752;9.180;2023-02-15T03:24:15;28.63;;;12.47;;
422;SDS011;198;48.752;9.180;2023-02-15T03:26:46;32.93;;;12.50;;
422;SDS011;198;48.752;9.180;2023-02-15T03:29:14;36.70;;;12.60;;
422;SDS011;198;48.752;9.180;2023-02-15T03:31:41;35.43;;;13.50;;
422;SDS011;198;48.752;9.180;2023-02-15T03:34:11;26.77;;;9.80;;
422;SDS011;198;48.752;9.180;2023-02-15T03:36:46;28.80;;;12.20;;
422;SDS011;198;48.752;9.180;2023-02-15T03:44:53;30.03;;;11.73;;
422;SDS011;198;48.752;9.180;2023-02-15T03:47:29;24.33;;;10.87;;
422;SDS011;198;48.752;9.180;2023-02-15T03:50:02;30.40;;;12.83;;
422;SDS011;198;48.752;9.180;2023-02-15T03:52:59;29.63;;;13.33;;
422;SDS011;198;48.752;9.180;2023-02-15T03:55:29;27.63;;;11.93;;
422;SDS011;198;48.752;9.180;2023-02-15T03:57:55;25.80;;;12.03;;
422;SDS011;198;48.752;9.180;2023-02-15T04:00:41;31.23;;;10.73;;
422;SDS011;198;48.752;9.180;2023-02-15T04:03:55;24.73;;;10.30;;
422;SDS011;198;48.752;9.180;2023-02-15T04:06:36;32.13;;;11.50;;
422;SDS011;198;48.752;9.180;2023-02-15T04:09:01;29.00;;;11.10;;
422;SDS011;198;48.752;9.180;2023-02-15T04:11:45;35.00;;;14.17;;
422;SDS011;198;48.752;9.180;2023-02-15T04:14:11;26.80;;;11.27;;
422;SDS011;198;48.752;9.180;2023-02-15T04:16:55;33.50;;;12.57;;
422;SDS011;198;48.752;9.180;2023-02-15T04:19:20;30.97;;;12.47;;
422;SDS011;198;48.752;9.180;2023-02-15T04:22:04;33.67;;;13.70;;
422;SDS011;198;48.752;9.180;2023-02-15T04:24:49;28.70;;;10.53;;
422;SDS011;198;48.752;9.180;2023-02-15T04:27:33;29.97;;;14.23;;
422;SDS011;198;48.752;9.180;2023-02-15T04:29:58;28.07;;;11.30;;
422;SDS011;198;48.752;9.180;2023-02-15T04:32:24;25.47;;;11.60;;
422;SDS011;198;48.752;9.180;2023-02-15T04:34:49;31.37;;;13.43;;
422;SDS011;198;48.752;9.180;2023-02-15T04:37:15;27.27;;;11.27;;
422;SDS011;198;48.752;9.180;2023-02-15T04:39:40;31.30;;;10.40;;
422;SDS011;198;48.752;9.180;2023-02-15T04:42:06;33.60;;;12.70;;
422;SDS011;198;48.752;9.180;2023-02-15T04:44:31;30.10;;;12.57;;
422;SDS011;198;48.752;9.180;2023-02-15T04:46:57;34.27;;;12.60;;
422;SDS011;198;48.752;9.180;2023-02-15T04:49:22;31.63;;;11.70;;
422;SDS011;198;48.752;9.180;2023-02-15T04:51:48;39.33;;;11.97;;
422;SDS011;198;48.752;9.180;2023-02-15T04:54:13;35.03;;;12.40;;
422;SDS011;198;48.752;9.180;2023-02-15T04:56:39;28.03;;;10.97;;
422;SDS011;198;48.752;9.180;2023-02-15T04:59:05;27.60;;;11.30;;
422;SDS011;198;48.752;9.180;2023-02-15T05:01:30;28.47;;;12.13;;
422;SDS011;198;48.752;9.180;2023-02-15T05:03:56;24.20;;;11.13;;
422;SDS011;198;48.752;9.180;2023-02-15T05:06:22;33.57;;;11.97;;
422;SDS011;198;48.752;9.180;2023-02-15T05:08:47;32.97;;;10.80;;
422;SDS011;198;48.752;9.180;2023-02-15T05:11:13;24.53;;;9.60;;
422;SDS011;198;48.752;9.180;2023-02-15T05:13:38;25.33;;;10.70;;
422;SDS011;198;48.752;9.180;2023-02-15T05:16:04;34.83;;;13.30;;
422;SDS011;198;48.752;9.180;2023-02-15T05:18:29;36.80;;;13.83;;
422;SDS011;198;48.752;9.180;2023-02-15T05:20:55;28.73;;;11.83;;
422;SDS011;198;48.752;9.180;2023-02-15T05:23:20;37.83;;;11.73;;
422;SDS011;198;48.752;9.180;2023-02-15T05:25:47;28.73;;;10.77;;
422;SDS011;198;48.752;9.180;2023-02-15T05:28:32;28.20;;;11.00;;
422;SDS011;198;48.752;9.180;2023-02-15T05:31:08;27.30;;;11.67;;
422;SDS011;198;48.752;9.180;2023-02-15T05:33:36;24.30;;;12.77;;
422;SDS011;198;48.752;9.180;2023-02-15T05:36:02;35.00;;;13.90;;
422;SDS011;198;48.752;9.180;2023-02-15T05:38:29;35.40;;;11.70;;
422;SDS011;198;48.752;9.180;2023-02-15T05:40:55;29.47;;;11.53;;
422;SDS011;198;48.752;9.180;2023-02-15T05:43:21;29.00;;;12.47;;
422;SDS011;198;48.752;9.180;2023-02-15T05:45:47;34.10;;;12.87;;
422;SDS011;198;48.752;9.180;2023-02-15T05:48:14;26.00;;;11.00;;
422;SDS011;198;48.752;9.180;2023-02-15T05:50:40;29.27;;;11.63;;
422;SDS011;198;48.752;9.180;2023-02-15T05:53:06;33.87;;;12.47;;
422;SDS011;198;48.752;9.180;2023-02-15T05:55:32;31.70;;;11.73;;
422;SDS011;198;48.752;9.180;2023-02-15T05:57:57;25.80;;;10.97;;
422;SDS011;198;48.752;9.180;2023-02-15T06:00:23;41.37;;;12.60;;
422;SDS011;198;48.752;9.180;2023-02-15T06:02:48;29.97;;;11.03;;
422;SDS011;198;48.752;9.180;2023-02-15T06:05:14;37.80;;;12.33;;
422;SDS011;198;48.752;9.180;2023-02-15T06:07:42;22.40;;;11.20;;
422;SDS011;198;48.752;9.180;2023-02-15T06:10:08;27.47;;;11.53;;
422;SDS011;198;48.752;9.180;2023-02-15T06:12:34;38.40;;;12.40;;
422;SDS011;198;48.752;9.180;2023-02-15T06:14:59;33.93;;;12.90;;
422;SDS011;198;48.752;9.180;2023-02-15T06:17:25;26.10;;;11.97;;
422;SDS011;198;48.752;9.180;2023-02-15T06:19:50;26.27;;;9.90;;
422;SDS011;198;48.752;9.180;2023-02-15T06:22:16;26.43;;;10.87;;
422;SDS011;198;48.752;9.180;2023-02-15T06:24:41;27.80;;;10.67;;
422;SDS011;198;48.752;9.180;2023-02-15T06:27:08;46.93;;;11.00;;
422;SDS011;198;48.752;9.180;2023-02-15T06:29:34;40.10;;;11.10;;
422;SDS011;198;48.752;9.180;2023-02-15T06:32:00;21.80;;;11.33;;
422;SDS011;198;48.752;9.180;2023-02-15T06:34:26;32.73;;;12.53;;
422;SDS011;198;48.752;9.180;2023-02-15T06:36:51;24.87;;;11.00;;
422;SDS011;198;48.752;9.180;2023-02-15T06:39:17;27.10;;;10.77;;
422;SDS011;198;48.752;9.180;2023-02-15T06:41:42;30.70;;;11.73;;
422;SDS011;198;48.752;9.180;2023-02-15T06:44:08;23.63;;;9.63;;
422;SDS011;198;48.752;9.180;2023-02-15T06:46:33;21.23;;;9.47;;
422;SDS011;198;48.752;9.180;2023-02-15T06:48:59;29.20;;;10.90;;
422;SDS011;198;48.752;9.180;2023-02-15T06:51:24;33.27;;;12.23;;
422;SDS011;198;48.752;9.180;2023-02-15T06:53:50;29.60;;;11.33;;
422;SDS011;198;48.752;9.180;2023-02-15T06:56:16;31.97;;;10.87;;
422;SDS011;198;48.752;9.180;2023-02-15T06:58:41;28.43;;;9.77;;
422;SDS011;198;48.752;9.180;2023-02-15T07:01:07;29.63;;;10.07;;
422;SDS011;198;48.752;9.180;2023-02-15T07:03:34;33.93;;;10.70;;
422;SDS011;198;48.752;9.180;2023-02-15T07:06:00;26.00;;;9.30;;
422;SDS011;198;48.752;9.180;2023-02-15T07:08:27;25.23;;;9.30;;
422;SDS011;198;48.752;9.180;2023-02-15T07:10:54;27.77;;;9.87;;
422;SDS011;198;48.752;9.180;2023-02-15T07:13:43;28.50;;;9.00;;
422;SDS011;198;48.752;9.180;2023-02-15T07:16:09;23.37;;;11.73;;
422;SDS011;198;48.752;9.180;2023-02-15T07:18:35;28.03;;;11.80;;
422;SDS011;198;48.752;9.180;2023-02-15T07:21:01;31.63;;;9.47;;
422;SDS011;198;48.752;9.180;2023-02-15T07:23:27;25.43;;;11.70;;
422;SDS011;198;48.752;9.180;2023-02-15T07:25:59;24.13;;;9.93;;
422;SDS011;198;48.752;9.180;2023-02-15T07:28:25;29.47;;;8.97;;
422;SDS011;198;48.752;9.180;2023-02-15T07:30:50;21.00;;;11.03;;
422;SDS011;198;48.752;9.180;2023-02-15T07:33:16;27.17;;;10.07;;
422;SDS011;198;48.752;9.180;2023-02-15T07:35:59;25.00;;;9.93;;
422;SDS011;198;48.752;9.180;2023-02-15T07:38:27;28.00;;;11.23;;
422;SDS011;198;48.752;9.180;2023-02-15T07:41:03;24.60;;;10.30;;
422;SDS011;198;48.752;9.180;2023-02-15T07:43:32;35.13;;;12.07;;
422;SDS011;198;48.752;9.180;2023-02-15T07:46:03;26.90;;;10.97;;
422;SDS011;198;48.752;9.180;2023-02-15T07:48:32;24.50;;;11.83;;
422;SDS011;198;48.752;9.180;2023-02-15T07:50:58;21.90;;;9.17;;
422;SDS011;198;48.752;9.180;2023-02-15T07:53:24;23.30;;;9.57;;
422;SDS011;198;48.752;9.180;2023-02-15T07:55:50;19.10;;;9.27;;
422;SDS011;198;48.752;9.180;2023-02-15T07:58:15;21.77;;;9.20;;
422;SDS011;198;48.752;9.180;2023-02-15T08:00:41;23.50;;;10.57;;
422;SDS011;198;48.752;9.180;2023-02-15T08:03:24;18.90;;;9.80;;
422;SDS011;198;48.752;9.180;2023-02-15T08:05:58;30.47;;;11.87;;
422;SDS011;198;48.752;9.180;2023-02-15T08:08:25;25.20;;;11.30;;
422;SDS011;198;48.752;9.180;2023-02-15T08:11:37;28.97;;;10.50;;
422;SDS011;198;48.752;9.180;2023-02-15T08:16:31;21.40;;;10.13;;
422;SDS011;198;48.752;9.180;2023-02-15T08:19:01;28.93;;;10.73;;
422;SDS011;198;48.752;9.180;2023-02-15T08:21:35;24.43;;;9.70;;
422;SDS011;198;48.752;9.180;2023-02-15T08:24:03;25.00;;;10.67;;
422;SDS011;198;48.752;9.180;2023-02-15T08:26:29;29.90;;;11.20;;
422;SDS011;198;48.752;9.180;2023-02-15T08:28:56;21.40;;;9.87;;
422;SDS011;198;48.752;9.180;2023-02-15T08:31:22;25.90;;;9.40;;
422;SDS011;198;48.752;9.180;2023-02-15T08:33:48;15.30;;;7.53;;
422;SDS011;198;48.752;9.180;2023-02-15T08:36:16;15.30;;;7.43;;
422;SDS011;198;48.752;9.180;2023-02-15T08:38:43;17.53;;;8.27;;
422;SDS011;198;48.752;9.180;2023-02-15T08:41:13;18.73;;;8.23;;
422;SDS011;198;48.752;9.180;2023-02-15T08:43:39;21.03;;;9.23;;
422;SDS011;198;48.752;9.180;2023-02-15T08:46:05;18.50;;;8.63;;
422;SDS011;198;48.752;9.180;2023-02-15T08:48:32;22.50;;;8.63;;
422;SDS011;198;48.752;9.180;2023-02-15T08:50:57;16.17;;;8.03;;
422;SDS011;198;48.752;9.180;2023-02-15T08:53:23;23.83;;;8.77;;
422;SDS011;198;48.752;9.180;2023-02-15T08:55:55;23.20;;;7.83;;
422;SDS011;198;48.752;9.180;2023-02-15T08:58:21;17.20;;;8.20;;
422;SDS011;198;48.752;9.180;2023-02-15T09:00:47;18.83;;;8.93;;
422;SDS011;198;48.752;9.180;2023-02-15T09:03:12;22.73;;;7.47;;
422;SDS011;198;48.752;9.180;2023-02-15T09:05:38;16.07;;;7.57;;
422;SDS011;198;48.752;9.180;2023-02-15T09:08:03;21.20;;;8.47;;
422;SDS011;198;48.752;9.180;2023-02-15T09:10:29;19.73;;;8.10;;
422;SDS011;198;48.752;9.180;2023-02-15T09:12:54;21.70;;;9.80;;
422;SDS011;198;48.752;9.180;2023-02-15T09:15:20;20.50;;;8.40;;
422;SDS011;198;48.752;9.180;2023-02-15T09:17:45;16.53;;;7.40;;
422;SDS011;198;48.752;9.180;2023-02-15T09:20:11;23.33;;;8.60;;
422;SDS011;198;48.752;9.180;2023-02-15T09:22:36;19.30;;;7.37;;
422;SDS011;198;48.752;9.180;2023-02-15T09:25:02;11.80;;;6.80;;
422;SDS011;198;48.752;9.180;2023-02-15T09:27:28;20.30;;;7.30;;
422;SDS011;198;48.752;9.180;2023-02-15T09:29:54;20.47;;;9.43;;
422;SDS011;198;48.752;9.180;2023-02-15T09:32:20;19.43;;;7.67;;
422;SDS011;198;48.752;9.180;2023-02-15T09:34:46;15.00;;;7.07;;
422;SDS011;198;48.752;9.180;2023-02-15T09:37:12;15.67;;;7.67;;
422;SDS011;198;48.752;9.180;2023-02-15T09:39:39;14.20;;;7.80;;
422;SDS011;198;48.752;9.180;2023-02-15T09:42:11;23.63;;;8.30;;
422;SDS011;198;48.752;9.180;2023-02-15T09:58:20;12.17;;;6.70;;
422;SDS011;198;48.752;9.180;2023-02-15T10:03:53;15.00;;;7.73;;
422;SDS011;198;48.752;9.180;2023-02-15T10:06:40;15.23;;;7.37;;
422;SDS011;198;48.752;9.180;2023-02-15T10:11:56;18.93;;;7.77;;
422;SDS011;198;48.752;9.180;2023-02-15T10:20:31;12.90;;;6.97;;
422;SDS011;198;48.752;9.180;2023-02-15T10:34:20;17.53;;;8.60;;
422;SDS011;198;48.752;9.180;2023-02-15T10:37:21;15.47;;;7.57;;
422;SDS011;198;48.752;9.180;2023-02-15T10:40:10;18.83;;;9.77;;
422;SDS011;198;48.752;9.180;2023-02-15T10:50:49;17.17;;;8.90;;
422;SDS011;198;48.752;9.180;2023-02-15T10:56:03;17.13;;;8.10;;
422;SDS011;198;48.752;9.180;2023-02-15T11:01:51;17.30;;;8.17;;
422;SDS011;198;48.752;9.180;2023-02-15T11:04:46;19.53;;;7.53;;
422;SDS011;198;48.752;9.180;2023-02-15T11:13:04;17.43;;;8.17;;
422;SDS011;198;48.752;9.180;2023-02-15T11:15:36;23.03;;;10.53;;
422;SDS011;198;48.752;9.180;2023-02-15T11:18:14;22.60;;;8.30;;
422;SDS011;198;48.752;9.180;2023-02-15T11:20:53;33.63;;;9.40;;
422;SDS011;198;48.752;9.180;2023-02-15T11:23:26;19.57;;;9.90;;
422;SDS011;198;48.752;9.180;2023-02-15T11:25:54;20.43;;;9.80;;
422;SDS011;198;48.752;9.180;2023-02-15T11:28:25;23.60;;;9.30;;
422;SDS011;198;48.752;9.180;2023-02-15T11:31:00;22.87;;;8.70;;
422;SDS011;198;48.752;9.180;2023-02-15T11:33:37;26.43;;;10.50;;
422;SDS011;198;48.752;9.180;2023-02-15T11:36:13;16.70;;;7.40;;
422;SDS011;198;48.752;9.180;2023-02-15T11:38:52;26.90;;;11.43;;
422;SDS011;198;48.752;9.180;2023-02-15T11:41:25;30.43;;;13.77;;
422;SDS011;198;48.752;9.180;2023-02-15T11:43:56;34.77;;;12.87;;
422;SDS011;198;48.752;9.180;2023-02-15T11:46:29;34.47;;;14.13;;
422;SDS011;198;48.752;9.180;2023-02-15T11:48:55;35.23;;;13.90;;
422;SDS011;198;48.752;9.180;2023-02-15T11:51:21;26.97;;;13.20;;
422;SDS011;198;48.752;9.180;2023-02-15T11:53:47;30.50;;;14.03;;
422;SDS011;198;48.752;9.180;2023-02-15T11:56:18;32.87;;;13.57;;
422;SDS011;198;48.752;9.180;2023-02-15T11:58:53;33.03;;;13.50;;
422;SDS011;198;48.752;9.180;2023-02-15T12:06:54;26.03;;;13.27;;
422;SDS011;198;48.752;9.180;2023-02-15T12:12:33;29.30;;;13.83;;
422;SDS011;198;48.752;9.180;2023-02-15T12:15:01;34.13;;;15.00;;
422;SDS011;198;48.752;9.180;2023-02-15T12:17:35;23.80;;;13.30;;
422;SDS011;198;48.752;9.180;2023-02-15T12:22:39;31.80;;;13.90;;
422;SDS011;198;48.752;9.180;2023-02-15T12:28:18;26.13;;;12.60;;
422;SDS011;198;48.752;9.180;2023-02-15T12:31:02;22.33;;;11.67;;
422;SDS011;198;48.752;9.180;2023-02-15T12:33:35;30.40;;;14.27;;
422;SDS011;198;48.752;9.180;2023-02-15T12:36:11;24.30;;;13.47;;
422;SDS011;198;48.752;9.180;2023-02-15T12:38:42;23.57;;;13.20;;
422;SDS011;198;48.752;9.180;2023-02-15T12:41:24;27.33;;;14.73;;
422;SDS011;198;48.752;9.180;2023-02-15T12:44:05;24.73;;;12.53;;
422;SDS011;198;48.752;9.180;2023-02-15T12:46:33;24.03;;;14.00;;
422;SDS011;198;48.752;9.180;2023-02-15T12:51:45;23.10;;;11.93;;
422;SDS011;198;48.752;9.180;2023-02-15T12:54:17;32.90;;;15.13;;
422;SDS011;198;48.752;9.180;2023-02-15T12:56:42;30.47;;;15.47;;
422;SDS011;198;48.752;9.180;2023-02-15T12:59:10;33.43;;;14.43;;
422;SDS011;198;48.752;9.180;2023-02-15T13:01:39;29.77;;;15.50;;
422;SDS011;198;48.752;9.180;2023-02-15T13:04:13;33.30;;;15.90;;
422;SDS011;198;48.752;9.180;2023-02-15T13:06:45;29.43;;;14.47;;
422;SDS011;198;48.752;9.180;2023-02-15T13:12:03;19.90;;;12.63;;
422;SDS011;198;48.752;9.180;2023-02-15T13:14:57;30.97;;;14.00;;
422;SDS011;198;48.752;9.180;2023-02-15T13:17:28;26.10;;;13.50;;
422;SDS011;198;48.752;9.180;2023-02-15T13:20:06;28.93;;;13.60;;
422;SDS011;198;48.752;9.180;2023-02-15T13:22:45;21.77;;;12.27;;
422;SDS011;198;48.752;9.180;2023-02-15T13:25:14;22.73;;;12.50;;
422;SDS011;198;48.752;9.180;2023-02-15T13:27:54;31.80;;;13.10;;
422;SDS011;198;48.752;9.180;2023-02-15T13:30:30;29.40;;;13.03;;
422;SDS011;198;48.752;9.180;2023-02-15T13:33:04;21.40;;;12.27;;
422;SDS011;198;48.752;9.180;2023-02-15T13:35:35;24.07;;;14.33;;
422;SDS011;198;48.752;9.180;2023-02-15T13:41:22;34.93;;;15.50;;
422;SDS011;198;48.752;9.180;2023-02-15T13:46:52;31.40;;;16.37;;
422;SDS011;198;48.752;9.180;2023-02-15T13:49:43;33.30;;;17.03;;
422;SDS011;198;48.752;9.180;2023-02-15T13:52:21;36.90;;;14.80;;
422;SDS011;198;48.752;9.180;2023-02-15T13:55:06;32.37;;;16.20;;
422;SDS011;198;48.752;9.180;2023-02-15T14:03:47;26.67;;;13.63;;
422;SDS011;198;48.752;9.180;2023-02-15T14:06:52;27.87;;;14.73;;
422;SDS011;198;48.752;9.180;2023-02-15T14:12:33;25.73;;;11.80;;
422;SDS011;198;48.752;9.180;2023-02-15T14:15:09;30.50;;;13.47;;
422;SDS011;198;48.752;9.180;2023-02-15T14:29:16;22.73;;;10.33;;
422;SDS011;198;48.752;9.180;2023-02-15T14:31:45;14.40;;;7.90;;
422;SDS011;198;48.752;9.180;2023-02-15T14:34:56;17.43;;;9.47;;
422;SDS011;198;48.752;9.180;2023-02-15T14:37:04;18.03;;;8.63;;
422;SDS011;198;48.752;9.180;2023-02-15T14:42:53;28.73;;;13.17;;
422;SDS011;198;48.752;9.180;2023-02-15T14:45:28;46.00;;;12.47;;
422;SDS011;198;48.752;9.180;2023-02-15T14:48:17;36.93;;;10.77;;
422;SDS011;198;48.752;9.180;2023-02-15T14:54:05;15.13;;;7.00;;
422;SDS011;198;48.752;9.180;2023-02-15T14:56:32;16.60;;;6.97;;
422;SDS011;198;48.752;9.180;2023-02-15T14:58:58;20.87;;;8.60;;
422;SDS011;198;48.752;9.180;2023-02-15T15:01:34;27.33;;;8.70;;
422;SDS011;198;48.752;9.180;2023-02-15T15:04:05;20.70;;;9.83;;
422;SDS011;198;48.752;9.180;2023-02-15T15:06:34;24.57;;;11.93;;
422;SDS011;198;48.752;9.180;2023-02-15T15:09:10;31.67;;;12.17;;
422;SDS011;198;48.752;9.180;2023-02-15T15:12:12;23.63;;;11.53;;
422;SDS011;198;48.752;9.180;2023-02-15T15:14:42;31.73;;;13.93;;
422;SDS011;198;48.752;9.180;2023-02-15T15:17:52;33.67;;;13.00;;
422;SDS011;198;48.752;9.180;2023-02-15T15:20:41;32.03;;;12.23;;
422;SDS011;198;48.752;9.180;2023-02-15T15:25:46;28.70;;;12.30;;
422;SDS011;198;48.752;9.180;2023-02-15T15:31:36;22.80;;;11.40;;
422;SDS011;198;48.752;9.180;2023-02-15T15:37:18;26.23;;;11.57;;
422;SDS011;198;48.752;9.180;2023-02-15T15:43:10;31.67;;;10.40;;
422;SDS011;198;48.752;9.180;2023-02-15T15:48:36;18.80;;;8.67;;
422;SDS011;198;48.752;9.180;2023-02-15T15:51:10;25.80;;;12.00;;
422;SDS011;198;48.752;9.180;2023-02-15T15:53:44;25.70;;;10.90;;
422;SDS011;198;48.752;9.180;2023-02-15T15:56:15;29.93;;;12.27;;
422;SDS011;198;48.752;9.180;2023-02-15T15:58:46;25.03;;;11.30;;
422;SDS011;198;48.752;9.180;2023-02-15T16:01:16;26.23;;;10.37;;
422;SDS011;198;48.752;9.180;2023-02-15T16:03:51;28.03;;;11.83;;
422;SDS011;198;48.752;9.180;2023-02-15T16:06:35;26.20;;;11.27;;
422;SDS011;198;48.752;9.180;2023-02-15T16:09:17;27.33;;;12.43;;
422;SDS011;198;48.752;9.180;2023-02-15T16:11:49;26.43;;;10.83;;
422;SDS011;198;48.752;9.180;2023-02-15T16:14:28;35.00;;;13.13;;
422;SDS011;198;48.752;9.180;2023-02-15T16:17:02;36.07;;;12.07;;
422;SDS011;198;48.752;9.180;2023-02-15T16:19:33;29.90;;;10.93;;
422;SDS011;198;48.752;9.180;2023-02-15T16:22:03;30.13;;;12.70;;
422;SDS011;198;48.752;9.180;2023-02-15T16:24:45;24.23;;;10.93;;
422;SDS011;198;48.752;9.180;2023-02-15T16:27:38;25.77;;;12.30;;
422;SDS011;198;48.752;9.180;2023-02-15T16:30:20;30.03;;;12.77;;
422;SDS011;198;48.752;9.180;2023-02-15T16:32:48;30.50;;;11.30;;
422;SDS011;198;48.752;9.180;2023-02-15T16:35:18;40.87;;;12.27;;
422;SDS011;198;48.752;9.180;2023-02-15T16:37:45;23.70;;;11.40;;
422;SDS011;198;48.752;9.180;2023-02-15T16:42:49;30.53;;;12.03;;
422;SDS011;198;48.752;9.180;2023-02-15T16:45:16;30.40;;;12.07;;
422;SDS011;198;48.752;9.180;2023-02-15T16:47:46;28.63;;;11.67;;
422;SDS011;198;48.752;9.180;2023-02-15T16:50:19;28.03;;;10.73;;
422;SDS011;198;48.752;9.180;2023-02-15T16:52:51;27.83;;;10.17;;
422;SDS011;198;48.752;9.180;2023-02-15T16:55:22;17.70;;;9.40;;
422;SDS011;198;48.752;9.180;2023-02-15T16:57:49;25.43;;;9.47;;
422;SDS011;198;48.752;9.180;2023-02-15T17:00:19;22.80;;;9.50;;
422;SDS011;198;48.752;9.180;2023-02-15T17:02:58;21.07;;;9.50;;
422;SDS011;198;48.752;9.180;2023-02-15T17:05:30;23.13;;;9.10;;
422;SDS011;198;48.752;9.180;2023-02-15T17:11:12;21.07;;;9.60;;
422;SDS011;198;48.752;9.180;2023-02-15T17:14:10;24.53;;;9.10;;
422;SDS011;198;48.752;9.180;2023-02-15T17:16:47;30.87;;;8.27;;
422;SDS011;198;48.752;9.180;2023-02-15T17:20:11;23.90;;;8.73;;
422;SDS011;198;48.752;9.180;2023-02-15T17:22:26;18.07;;;6.80;;
422;SDS011;198;48.752;9.180;2023-02-15T17:24:57;17.70;;;7.00;;
422;SDS011;198;48.752;9.180;2023-02-15T17:27:26;20.37;;;7.30;;
422;SDS011;198;48.752;9.180;2023-02-15T17:29:58;26.20;;;7.87;;
422;SDS011;198;48.752;9.180;2023-02-15T17:32:26;16.27;;;7.50;;
422;SDS011;198;48.752;9.180;2023-02-15T17:40:20;22.07;;;8.03;;
422;SDS011;198;48.752;9.180;2023-02-15T17:42:53;15.60;;;7.13;;
422;SDS011;198;48.752;9.180;2023-02-15T17:45:20;33.73;;;7.97;;
422;SDS011;198;48.752;9.180;2023-02-15T17:47:47;19.83;;;8.10;;
422;SDS011;198;48.752;9.180;2023-02-15T17:52:47;22.37;;;6.93;;
422;SDS011;198;48.752;9.180;2023-02-15T17:55:14;20.10;;;6.57;;
422;SDS011;198;48.752;9.180;2023-02-15T17:58:00;17.50;;;8.63;;
422;SDS011;198;48.752;9.180;2023-02-15T18:00:31;23.70;;;8.70;;
422;SDS011;198;48.752;9.180;2023-02-15T18:03:17;18.53;;;6.50;;
422;SDS011;198;48.752;9.180;2023-02-15T18:06:01;20.73;;;6.37;;
422;SDS011;198;48.752;9.180;2023-02-15T18:08:45;20.53;;;7.43;;
422;SDS011;198;48.752;9.180;2023-02-15T18:11:29;19.60;;;8.03;;
422;SDS011;198;48.752;9.180;2023-02-15T18:13:59;9.97;;;5.67;;
422;SDS011;198;48.752;9.180;2023-02-15T18:16:26;13.70;;;6.17;;
422;SDS011;198;48.752;9.180;2023-02-15T18:18:54;15.87;;;6.07;;
422;SDS011;198;48.752;9.180;2023-02-15T18:21:20;19.93;;;6.10;;
422;SDS011;198;48.752;9.180;2023-02-15T18:23:47;17.60;;;5.60;;
422;SDS011;198;48.752;9.180;2023-02-15T18:26:16;17.23;;;5.07;;
422;SDS011;198;48.752;9.180;2023-02-15T18:28:44;18.10;;;5.77;;
422;SDS011;198;48.752;9.180;2023-02-15T18:31:10;15.97;;;5.40;;
422;SDS011;198;48.752;9.180;2023-02-15T18:33:58;15.93;;;6.87;;